BAW659 LGKF-EGLL
Flight info
| Callsign | BAW659 |
|---|---|
| Flight time | 3h 4m |
| Altitude | 36000 |
| Route | LATAN DCT LABIN/N0451F380 DCT TULIK DCT UNIMI DCT XEBIX DCT USUDO DCT LIRSU DCT SPI DCT BUB L608 LOGAN |
| Aircraft | A320/M-SDGHIJ1LRWXY/LB1 |
Departure
| Time | 2026-05-07 07:52 |
|---|---|
| Airport | Kefallinia Airport (LGKF) |
Arrival
| Time | 2026-05-07 10:57 |
|---|---|
| Airport | London Heathrow Airport (EGLL) |
| Time | Latitude | Longitude | Altitude | Speed | Heading |
|---|---|---|---|---|---|
| 2026-05-07 07:13 | 38.11957 | 20.50367 | 68 ft | 0 kts | 56° |
| 2026-05-07 07:43 | 38.11951 | 20.50356 | 60 ft | 4 kts | 56° |
| 2026-05-07 07:43 | 38.11936 | 20.50327 | 68 ft | 4 kts | 56° |
| 2026-05-07 07:43 | 38.11922 | 20.50299 | 66 ft | 4 kts | 57° |
| 2026-05-07 07:44 | 38.11907 | 20.50271 | 68 ft | 3 kts | 57° |
| 2026-05-07 07:44 | 38.11905 | 20.50286 | 68 ft | 4 kts | 109° |
| 2026-05-07 07:44 | 38.11887 | 20.50309 | 63 ft | 4 kts | 142° |
| 2026-05-07 07:44 | 38.11864 | 20.50328 | 68 ft | 4 kts | 146° |
| 2026-05-07 07:45 | 38.11855 | 20.50336 | 61 ft | 0 kts | 146° |
| 2026-05-07 07:48 | 38.11853 | 20.50338 | 68 ft | 1 kts | 146° |
| 2026-05-07 07:48 | 38.11839 | 20.50350 | 62 ft | 5 kts | 146° |
| 2026-05-07 07:49 | 38.11799 | 20.50357 | 65 ft | 7 kts | 200° |
| 2026-05-07 07:49 | 38.11743 | 20.50318 | 66 ft | 11 kts | 210° |
| 2026-05-07 07:49 | 38.11664 | 20.50333 | 65 ft | 14 kts | 147° |
| 2026-05-07 07:49 | 38.11572 | 20.50410 | 63 ft | 19 kts | 146° |
| 2026-05-07 07:50 | 38.11445 | 20.50517 | 61 ft | 24 kts | 146° |
| 2026-05-07 07:50 | 38.11300 | 20.50640 | 57 ft | 25 kts | 147° |
| 2026-05-07 07:50 | 38.11201 | 20.50723 | 57 ft | 11 kts | 146° |
| 2026-05-07 07:50 | 38.11139 | 20.50762 | 55 ft | 9 kts | 180° |
| 2026-05-07 07:51 | 38.11089 | 20.50772 | 53 ft | 8 kts | 131° |
| 2026-05-07 07:51 | 38.11118 | 20.50793 | 53 ft | 8 kts | 331° |
| 2026-05-07 07:51 | 38.11180 | 20.50741 | 53 ft | 20 kts | 326° |
| 2026-05-07 07:51 | 38.11491 | 20.50478 | 57 ft | 88 kts | 326° |
| 2026-05-07 07:52 | 38.12157 | 20.49918 | 59 ft | 139 kts | 326° |
| 2026-05-07 07:52 | 38.13058 | 20.49164 | 319 ft | 159 kts | 326° |
| 2026-05-07 07:52 | 38.13950 | 20.48369 | 986 ft | 156 kts | 324° |
| 2026-05-07 07:52 | 38.14532 | 20.47834 | 1359 ft | 157 kts | 324° |
| 2026-05-07 07:53 | 38.15471 | 20.46952 | 1656 ft | 179 kts | 323° |
| 2026-05-07 07:53 | 38.16537 | 20.45960 | 1945 ft | 199 kts | 324° |
| 2026-05-07 07:53 | 38.17717 | 20.44873 | 2260 ft | 222 kts | 324° |
| 2026-05-07 07:53 | 38.18984 | 20.43720 | 2995 ft | 223 kts | 324° |
| 2026-05-07 07:54 | 38.20259 | 20.42567 | 3840 ft | 227 kts | 324° |
| 2026-05-07 07:54 | 38.21559 | 20.41402 | 4582 ft | 232 kts | 324° |
| 2026-05-07 07:54 | 38.22888 | 20.40219 | 5370 ft | 234 kts | 324° |
| 2026-05-07 07:54 | 38.24227 | 20.39031 | 6171 ft | 235 kts | 323° |
| 2026-05-07 07:55 | 38.25539 | 20.37789 | 6917 ft | 239 kts | 315° |
| 2026-05-07 07:55 | 38.26558 | 20.36031 | 7245 ft | 258 kts | 290° |
| 2026-05-07 07:55 | 38.27086 | 20.33771 | 7650 ft | 276 kts | 282° |
| 2026-05-07 07:55 | 38.27599 | 20.31390 | 8414 ft | 281 kts | 285° |
| 2026-05-07 07:56 | 38.28465 | 20.29137 | 9214 ft | 288 kts | 302° |
| 2026-05-07 07:56 | 38.29837 | 20.27226 | 9941 ft | 297 kts | 316° |
| 2026-05-07 07:56 | 38.31394 | 20.25473 | 10561 ft | 305 kts | 314° |
| 2026-05-07 07:56 | 38.32984 | 20.23547 | 10805 ft | 326 kts | 313° |
| 2026-05-07 07:57 | 38.34602 | 20.21483 | 11198 ft | 339 kts | 312° |
| 2026-05-07 07:57 | 38.36286 | 20.19306 | 11863 ft | 342 kts | 311° |
| 2026-05-07 07:57 | 38.37968 | 20.17138 | 12635 ft | 343 kts | 311° |
| 2026-05-07 07:57 | 38.39656 | 20.14984 | 13427 ft | 344 kts | 311° |
| 2026-05-07 07:58 | 38.41358 | 20.12832 | 14176 ft | 344 kts | 311° |
| 2026-05-07 07:58 | 38.43041 | 20.10712 | 14733 ft | 347 kts | 311° |
| 2026-05-07 07:58 | 38.44770 | 20.08532 | 15299 ft | 351 kts | 311° |
| 2026-05-07 07:58 | 38.46523 | 20.06325 | 15829 ft | 355 kts | 311° |
| 2026-05-07 07:59 | 38.48294 | 20.04096 | 16356 ft | 360 kts | 311° |
| 2026-05-07 07:59 | 38.50095 | 20.01826 | 16787 ft | 367 kts | 311° |
| 2026-05-07 07:59 | 38.51927 | 19.99516 | 17307 ft | 373 kts | 311° |
| 2026-05-07 07:59 | 38.53782 | 19.97171 | 17841 ft | 377 kts | 311° |
| 2026-05-07 08:00 | 38.55650 | 19.94802 | 18385 ft | 381 kts | 311° |
| 2026-05-07 08:00 | 38.57538 | 19.92404 | 18860 ft | 385 kts | 311° |
| 2026-05-07 08:00 | 38.59446 | 19.89977 | 19375 ft | 387 kts | 311° |
| 2026-05-07 08:00 | 38.61362 | 19.87541 | 19901 ft | 390 kts | 311° |
| 2026-05-07 08:01 | 38.63290 | 19.85094 | 20431 ft | 392 kts | 311° |
| 2026-05-07 08:01 | 38.65226 | 19.82632 | 20933 ft | 393 kts | 311° |
| 2026-05-07 08:01 | 38.67169 | 19.80163 | 21416 ft | 395 kts | 311° |
| 2026-05-07 08:01 | 38.69125 | 19.77679 | 21959 ft | 396 kts | 311° |
| 2026-05-07 08:02 | 38.71085 | 19.75192 | 22505 ft | 397 kts | 311° |
| 2026-05-07 08:02 | 38.73047 | 19.72697 | 22979 ft | 398 kts | 311° |
| 2026-05-07 08:02 | 38.75016 | 19.70188 | 23449 ft | 400 kts | 311° |
| 2026-05-07 08:02 | 38.76993 | 19.67663 | 23881 ft | 402 kts | 311° |
| 2026-05-07 08:03 | 38.78982 | 19.65120 | 24291 ft | 404 kts | 311° |
| 2026-05-07 08:03 | 38.80976 | 19.62566 | 24648 ft | 407 kts | 311° |
| 2026-05-07 08:03 | 38.82981 | 19.59994 | 25026 ft | 408 kts | 311° |
| 2026-05-07 08:03 | 38.84995 | 19.57403 | 25402 ft | 410 kts | 311° |
| 2026-05-07 08:04 | 38.87011 | 19.54812 | 25794 ft | 412 kts | 311° |
| 2026-05-07 08:04 | 38.89041 | 19.52201 | 26173 ft | 413 kts | 311° |
| 2026-05-07 08:04 | 38.91079 | 19.49584 | 26547 ft | 415 kts | 311° |
| 2026-05-07 08:04 | 38.93123 | 19.46964 | 26923 ft | 416 kts | 311° |
| 2026-05-07 08:05 | 38.95150 | 19.44358 | 27330 ft | 418 kts | 310° |
| 2026-05-07 08:05 | 38.97208 | 19.41705 | 27740 ft | 419 kts | 310° |
| 2026-05-07 08:05 | 38.99266 | 19.39047 | 28130 ft | 420 kts | 310° |
| 2026-05-07 08:05 | 39.01335 | 19.36379 | 28526 ft | 422 kts | 310° |
| 2026-05-07 08:06 | 39.03409 | 19.33702 | 28922 ft | 423 kts | 311° |
| 2026-05-07 08:06 | 39.05487 | 19.31013 | 29303 ft | 425 kts | 310° |
| 2026-05-07 08:06 | 39.07561 | 19.28326 | 29842 ft | 422 kts | 310° |
| 2026-05-07 08:06 | 39.09626 | 19.25658 | 30371 ft | 418 kts | 310° |
| 2026-05-07 08:07 | 39.11674 | 19.23011 | 30846 ft | 416 kts | 310° |
| 2026-05-07 08:07 | 39.13706 | 19.20378 | 31357 ft | 413 kts | 310° |
| 2026-05-07 08:07 | 39.15724 | 19.17758 | 31856 ft | 409 kts | 310° |
| 2026-05-07 08:07 | 39.17720 | 19.15162 | 32382 ft | 406 kts | 309° |
| 2026-05-07 08:08 | 39.19696 | 19.12588 | 32881 ft | 403 kts | 309° |
| 2026-05-07 08:08 | 39.21659 | 19.10034 | 33412 ft | 399 kts | 309° |
| 2026-05-07 08:08 | 39.23605 | 19.07498 | 33897 ft | 396 kts | 308° |
| 2026-05-07 08:08 | 39.25535 | 19.04974 | 34335 ft | 394 kts | 308° |
| 2026-05-07 08:09 | 39.27456 | 19.02461 | 34709 ft | 393 kts | 308° |
| 2026-05-07 08:09 | 39.29412 | 18.99999 | 35041 ft | 395 kts | 313° |
| 2026-05-07 08:09 | 39.31631 | 18.97852 | 35347 ft | 399 kts | 317° |
| 2026-05-07 08:09 | 39.33886 | 18.95767 | 35665 ft | 399 kts | 317° |
| 2026-05-07 08:10 | 39.36144 | 18.93678 | 35878 ft | 400 kts | 318° |
| 2026-05-07 08:10 | 39.38413 | 18.91575 | 36064 ft | 402 kts | 318° |
| 2026-05-07 08:10 | 39.40694 | 18.89459 | 36110 ft | 407 kts | 318° |
| 2026-05-07 08:11 | 39.45325 | 18.85147 | 36110 ft | 412 kts | 318° |
| 2026-05-07 08:11 | 39.49959 | 18.80840 | 36111 ft | 413 kts | 318° |
| 2026-05-07 08:12 | 39.54619 | 18.76493 | 36126 ft | 413 kts | 318° |
| 2026-05-07 08:12 | 39.59281 | 18.72128 | 36113 ft | 414 kts | 318° |
| 2026-05-07 08:13 | 39.63949 | 18.67740 | 36103 ft | 415 kts | 318° |
| 2026-05-07 08:13 | 39.68640 | 18.63336 | 36097 ft | 417 kts | 318° |
| 2026-05-07 08:14 | 39.73348 | 18.58915 | 36096 ft | 418 kts | 318° |
| 2026-05-07 08:14 | 39.78056 | 18.54482 | 36101 ft | 418 kts | 318° |
| 2026-05-07 08:15 | 39.82766 | 18.50035 | 36107 ft | 419 kts | 318° |
| 2026-05-07 08:15 | 39.87497 | 18.45562 | 36106 ft | 421 kts | 319° |
| 2026-05-07 08:16 | 39.92244 | 18.41067 | 36105 ft | 423 kts | 319° |
| 2026-05-07 08:16 | 39.97005 | 18.36550 | 36104 ft | 424 kts | 319° |
| 2026-05-07 08:17 | 40.01757 | 18.32033 | 36103 ft | 425 kts | 318° |
| 2026-05-07 08:17 | 40.06540 | 18.27479 | 36112 ft | 426 kts | 318° |
| 2026-05-07 08:18 | 40.11330 | 18.22912 | 36125 ft | 426 kts | 319° |
| 2026-05-07 08:18 | 40.16142 | 18.18320 | 36096 ft | 429 kts | 319° |
| 2026-05-07 08:19 | 40.20971 | 18.13701 | 36090 ft | 431 kts | 319° |
| 2026-05-07 08:19 | 40.25815 | 18.09055 | 36093 ft | 432 kts | 319° |
| 2026-05-07 08:20 | 40.30666 | 18.04395 | 36098 ft | 433 kts | 319° |
| 2026-05-07 08:20 | 40.35528 | 17.99718 | 36110 ft | 433 kts | 319° |
| 2026-05-07 08:21 | 40.40389 | 17.95032 | 36096 ft | 434 kts | 319° |
| 2026-05-07 08:21 | 40.45261 | 17.90326 | 36093 ft | 436 kts | 319° |
| 2026-05-07 08:22 | 40.50146 | 17.85602 | 36101 ft | 436 kts | 319° |
| 2026-05-07 08:22 | 40.55044 | 17.80862 | 36099 ft | 438 kts | 319° |
| 2026-05-07 08:23 | 40.59944 | 17.76102 | 36099 ft | 437 kts | 319° |
| 2026-05-07 08:23 | 40.64841 | 17.71331 | 36109 ft | 439 kts | 319° |
| 2026-05-07 08:24 | 40.69736 | 17.66552 | 36102 ft | 441 kts | 319° |
| 2026-05-07 08:24 | 40.74697 | 17.61700 | 36101 ft | 441 kts | 319° |
| 2026-05-07 08:25 | 40.79593 | 17.56905 | 36096 ft | 442 kts | 319° |
| 2026-05-07 08:25 | 40.84534 | 17.52068 | 36096 ft | 442 kts | 319° |
| 2026-05-07 08:26 | 40.91930 | 17.44805 | 36088 ft | 443 kts | 319° |
| 2026-05-07 08:26 | 40.96868 | 17.39946 | 36077 ft | 443 kts | 319° |
| 2026-05-07 08:27 | 41.01816 | 17.35064 | 36090 ft | 444 kts | 319° |
| 2026-05-07 08:27 | 41.06765 | 17.30175 | 36075 ft | 444 kts | 319° |
| 2026-05-07 08:28 | 41.11721 | 17.25255 | 36083 ft | 445 kts | 318° |
| 2026-05-07 08:28 | 41.16681 | 17.20322 | 36076 ft | 446 kts | 318° |
| 2026-05-07 08:29 | 41.21651 | 17.15380 | 36070 ft | 446 kts | 318° |
| 2026-05-07 08:29 | 41.26630 | 17.10429 | 36071 ft | 447 kts | 318° |
| 2026-05-07 08:30 | 41.31604 | 17.05476 | 36071 ft | 446 kts | 318° |
| 2026-05-07 08:30 | 41.36563 | 17.00505 | 36095 ft | 446 kts | 318° |
| 2026-05-07 08:31 | 41.41479 | 16.95579 | 36087 ft | 445 kts | 318° |
| 2026-05-07 08:31 | 41.46420 | 16.90621 | 36078 ft | 444 kts | 318° |
| 2026-05-07 08:32 | 41.51348 | 16.85657 | 36072 ft | 443 kts | 318° |
| 2026-05-07 08:32 | 41.56260 | 16.80707 | 36069 ft | 443 kts | 318° |
| 2026-05-07 08:33 | 41.61181 | 16.75733 | 36038 ft | 443 kts | 318° |
| 2026-05-07 08:33 | 41.66099 | 16.70762 | 36057 ft | 443 kts | 318° |
| 2026-05-07 08:34 | 41.70991 | 16.65802 | 36064 ft | 443 kts | 318° |
| 2026-05-07 08:34 | 41.75927 | 16.60776 | 36070 ft | 443 kts | 318° |
| 2026-05-07 08:35 | 41.80804 | 16.55807 | 36065 ft | 443 kts | 318° |
| 2026-05-07 08:35 | 41.85711 | 16.50815 | 36064 ft | 442 kts | 318° |
| 2026-05-07 08:36 | 41.90611 | 16.45810 | 36043 ft | 442 kts | 318° |
| 2026-05-07 08:36 | 41.95495 | 16.40793 | 36044 ft | 442 kts | 318° |
| 2026-05-07 08:37 | 42.00394 | 16.35767 | 36048 ft | 442 kts | 318° |
| 2026-05-07 08:37 | 42.05277 | 16.30740 | 36053 ft | 442 kts | 318° |
| 2026-05-07 08:38 | 42.09334 | 16.26556 | 36051 ft | 442 kts | 318° |
| 2026-05-07 08:38 | 42.14214 | 16.21520 | 36051 ft | 442 kts | 318° |
| 2026-05-07 08:39 | 42.19101 | 16.16471 | 36040 ft | 443 kts | 318° |
| 2026-05-07 08:39 | 42.24783 | 16.10591 | 36026 ft | 442 kts | 318° |
| 2026-05-07 08:40 | 42.28869 | 16.06339 | 36030 ft | 442 kts | 318° |
| 2026-05-07 08:40 | 42.33745 | 16.01267 | 36041 ft | 443 kts | 318° |
| 2026-05-07 08:41 | 42.38627 | 15.96183 | 36051 ft | 442 kts | 317° |
| 2026-05-07 08:41 | 42.43486 | 15.91092 | 36044 ft | 441 kts | 317° |
| 2026-05-07 08:42 | 42.48306 | 15.86058 | 36034 ft | 440 kts | 317° |
| 2026-05-07 08:42 | 42.53148 | 15.80990 | 36047 ft | 440 kts | 317° |
| 2026-05-07 08:43 | 42.57998 | 15.75896 | 36035 ft | 441 kts | 317° |
| 2026-05-07 08:43 | 42.62850 | 15.70776 | 36032 ft | 442 kts | 317° |
| 2026-05-07 08:44 | 42.67703 | 15.65653 | 36026 ft | 442 kts | 317° |
| 2026-05-07 08:44 | 42.72556 | 15.60527 | 36039 ft | 442 kts | 317° |
| 2026-05-07 08:45 | 42.77413 | 15.55385 | 36052 ft | 442 kts | 317° |
| 2026-05-07 08:45 | 42.82274 | 15.50228 | 36040 ft | 443 kts | 317° |
| 2026-05-07 08:46 | 42.87134 | 15.45063 | 36029 ft | 443 kts | 317° |
| 2026-05-07 08:46 | 42.91984 | 15.39901 | 36026 ft | 442 kts | 317° |
| 2026-05-07 08:47 | 42.96828 | 15.34725 | 36023 ft | 442 kts | 317° |
| 2026-05-07 08:47 | 43.01665 | 15.29538 | 36031 ft | 442 kts | 317° |
| 2026-05-07 08:48 | 43.06502 | 15.24353 | 36043 ft | 442 kts | 316° |
| 2026-05-07 08:48 | 43.11325 | 15.19170 | 36034 ft | 441 kts | 316° |
| 2026-05-07 08:49 | 43.16144 | 15.13969 | 36029 ft | 441 kts | 316° |
| 2026-05-07 08:49 | 43.20966 | 15.08770 | 36024 ft | 441 kts | 316° |
| 2026-05-07 08:50 | 43.25787 | 15.03550 | 36039 ft | 441 kts | 316° |
| 2026-05-07 08:50 | 43.30601 | 14.98337 | 36032 ft | 441 kts | 316° |
| 2026-05-07 08:51 | 43.35420 | 14.93119 | 36029 ft | 441 kts | 316° |
| 2026-05-07 08:51 | 43.40229 | 14.87882 | 36033 ft | 441 kts | 315° |
| 2026-05-07 08:52 | 43.45034 | 14.82637 | 36032 ft | 442 kts | 315° |
| 2026-05-07 08:52 | 43.49851 | 14.77365 | 36040 ft | 442 kts | 315° |
| 2026-05-07 08:53 | 43.54629 | 14.72122 | 36039 ft | 443 kts | 315° |
| 2026-05-07 08:53 | 43.59452 | 14.66835 | 36038 ft | 444 kts | 315° |
| 2026-05-07 08:54 | 43.64285 | 14.61532 | 36037 ft | 443 kts | 315° |
| 2026-05-07 08:54 | 43.69100 | 14.56232 | 36047 ft | 442 kts | 315° |
| 2026-05-07 08:55 | 43.73913 | 14.50912 | 36039 ft | 443 kts | 315° |
| 2026-05-07 08:55 | 43.78727 | 14.45569 | 36038 ft | 444 kts | 315° |
| 2026-05-07 08:56 | 43.83551 | 14.40226 | 36041 ft | 444 kts | 315° |
| 2026-05-07 08:56 | 43.88376 | 14.34880 | 36045 ft | 444 kts | 315° |
| 2026-05-07 08:57 | 43.93210 | 14.29487 | 36058 ft | 447 kts | 315° |
| 2026-05-07 08:57 | 43.98044 | 14.24073 | 36055 ft | 446 kts | 315° |
| 2026-05-07 08:58 | 44.02870 | 14.18684 | 36044 ft | 444 kts | 315° |
| 2026-05-07 08:58 | 44.07687 | 14.13297 | 36036 ft | 445 kts | 315° |
| 2026-05-07 08:59 | 44.12493 | 14.07890 | 36040 ft | 444 kts | 314° |
| 2026-05-07 08:59 | 44.17302 | 14.02469 | 36039 ft | 445 kts | 314° |
| 2026-05-07 09:00 | 44.22121 | 13.97041 | 36029 ft | 445 kts | 314° |
| 2026-05-07 09:00 | 44.26926 | 13.91603 | 36026 ft | 445 kts | 314° |
| 2026-05-07 09:01 | 44.31738 | 13.86139 | 36065 ft | 446 kts | 314° |
| 2026-05-07 09:01 | 44.36555 | 13.80677 | 36068 ft | 445 kts | 314° |
| 2026-05-07 09:02 | 44.41355 | 13.75217 | 36058 ft | 445 kts | 313° |
| 2026-05-07 09:02 | 44.46147 | 13.69749 | 36050 ft | 444 kts | 313° |
| 2026-05-07 09:03 | 44.50931 | 13.64284 | 36059 ft | 444 kts | 313° |
| 2026-05-07 09:03 | 44.55711 | 13.58801 | 36053 ft | 444 kts | 313° |
| 2026-05-07 09:04 | 44.60497 | 13.53312 | 36042 ft | 443 kts | 313° |
| 2026-05-07 09:04 | 44.65233 | 13.47876 | 36027 ft | 442 kts | 313° |
| 2026-05-07 09:05 | 44.69994 | 13.42382 | 36019 ft | 443 kts | 313° |
| 2026-05-07 09:05 | 44.74747 | 13.36871 | 36046 ft | 443 kts | 313° |
| 2026-05-07 09:06 | 44.79514 | 13.31358 | 36030 ft | 443 kts | 313° |
| 2026-05-07 09:06 | 44.84276 | 13.25842 | 36029 ft | 443 kts | 313° |
| 2026-05-07 09:07 | 44.89035 | 13.20305 | 36023 ft | 443 kts | 313° |
| 2026-05-07 09:07 | 44.93784 | 13.14766 | 36021 ft | 444 kts | 313° |
| 2026-05-07 09:08 | 44.98544 | 13.09204 | 36045 ft | 444 kts | 314° |
| 2026-05-07 09:08 | 45.03497 | 13.03908 | 36053 ft | 449 kts | 317° |
| 2026-05-07 09:09 | 45.08637 | 12.98878 | 36026 ft | 450 kts | 318° |
| 2026-05-07 09:09 | 45.13760 | 12.93824 | 36005 ft | 449 kts | 317° |
| 2026-05-07 09:10 | 45.18847 | 12.88691 | 36002 ft | 449 kts | 317° |
| 2026-05-07 09:10 | 45.23907 | 12.83514 | 35995 ft | 448 kts | 317° |
| 2026-05-07 09:11 | 45.28932 | 12.78356 | 36016 ft | 449 kts | 317° |
| 2026-05-07 09:11 | 45.33967 | 12.73100 | 35999 ft | 449 kts | 316° |
| 2026-05-07 09:12 | 45.38977 | 12.67768 | 35997 ft | 450 kts | 316° |
| 2026-05-07 09:12 | 45.43984 | 12.62427 | 35995 ft | 450 kts | 316° |
| 2026-05-07 09:13 | 45.48999 | 12.57089 | 36017 ft | 450 kts | 316° |
| 2026-05-07 09:13 | 45.54032 | 12.51729 | 36020 ft | 452 kts | 316° |
| 2026-05-07 09:14 | 45.59066 | 12.46351 | 36019 ft | 452 kts | 316° |
| 2026-05-07 09:14 | 45.64103 | 12.40961 | 36014 ft | 452 kts | 316° |
| 2026-05-07 09:15 | 45.69139 | 12.35571 | 36013 ft | 452 kts | 316° |
| 2026-05-07 09:15 | 45.74170 | 12.30166 | 36002 ft | 453 kts | 316° |
| 2026-05-07 09:16 | 45.79203 | 12.24751 | 36013 ft | 452 kts | 317° |
| 2026-05-07 09:16 | 45.84239 | 12.19325 | 35999 ft | 453 kts | 316° |
| 2026-05-07 09:17 | 45.89278 | 12.13867 | 35992 ft | 453 kts | 316° |
| 2026-05-07 09:17 | 45.94305 | 12.08403 | 35991 ft | 453 kts | 316° |
| 2026-05-07 09:18 | 45.99332 | 12.02933 | 35984 ft | 454 kts | 316° |
| 2026-05-07 09:18 | 46.04369 | 11.97440 | 35974 ft | 454 kts | 316° |
| 2026-05-07 09:19 | 46.09371 | 11.91968 | 36000 ft | 454 kts | 317° |
| 2026-05-07 09:19 | 46.14395 | 11.86472 | 35980 ft | 454 kts | 317° |
| 2026-05-07 09:20 | 46.19422 | 11.80952 | 35978 ft | 454 kts | 317° |
| 2026-05-07 09:20 | 46.24446 | 11.75423 | 35970 ft | 454 kts | 317° |
| 2026-05-07 09:21 | 46.29468 | 11.69886 | 35964 ft | 453 kts | 317° |
| 2026-05-07 09:21 | 46.34484 | 11.64341 | 35967 ft | 453 kts | 317° |
| 2026-05-07 09:22 | 46.39499 | 11.58787 | 35989 ft | 454 kts | 317° |
| 2026-05-07 09:22 | 46.44513 | 11.53213 | 36013 ft | 454 kts | 317° |
| 2026-05-07 09:23 | 46.49515 | 11.47646 | 36011 ft | 454 kts | 316° |
| 2026-05-07 09:23 | 46.54529 | 11.42042 | 36019 ft | 454 kts | 316° |
| 2026-05-07 09:24 | 46.59540 | 11.36440 | 36136 ft | 454 kts | 317° |
| 2026-05-07 09:24 | 46.63691 | 11.31795 | 36352 ft | 453 kts | 317° |
| 2026-05-07 09:25 | 46.66188 | 11.28990 | 36472 ft | 453 kts | 317° |
| 2026-05-07 09:25 | 46.68679 | 11.26186 | 36599 ft | 452 kts | 317° |
| 2026-05-07 09:25 | 46.71169 | 11.23382 | 36726 ft | 452 kts | 317° |
| 2026-05-07 09:25 | 46.73659 | 11.20576 | 36855 ft | 453 kts | 317° |
| 2026-05-07 09:26 | 46.76148 | 11.17767 | 36988 ft | 452 kts | 317° |
| 2026-05-07 09:26 | 46.78633 | 11.14959 | 37123 ft | 452 kts | 317° |
| 2026-05-07 09:26 | 46.81116 | 11.12145 | 37251 ft | 452 kts | 317° |
| 2026-05-07 09:26 | 46.83599 | 11.09328 | 37382 ft | 452 kts | 317° |
| 2026-05-07 09:27 | 46.86089 | 11.06504 | 37541 ft | 454 kts | 317° |
| 2026-05-07 09:27 | 46.88606 | 11.03704 | 37667 ft | 454 kts | 319° |
| 2026-05-07 09:27 | 46.93704 | 10.98252 | 37971 ft | 454 kts | 320° |
| 2026-05-07 09:28 | 46.96268 | 10.95533 | 38006 ft | 454 kts | 320° |
| 2026-05-07 09:28 | 47.01373 | 10.90092 | 38003 ft | 453 kts | 319° |
| 2026-05-07 09:29 | 47.06455 | 10.84617 | 37994 ft | 454 kts | 319° |
| 2026-05-07 09:29 | 47.11530 | 10.79110 | 38001 ft | 454 kts | 319° |
| 2026-05-07 09:30 | 47.16607 | 10.73587 | 38010 ft | 453 kts | 320° |
| 2026-05-07 09:30 | 47.21669 | 10.68078 | 38010 ft | 452 kts | 319° |
| 2026-05-07 09:31 | 47.26733 | 10.62551 | 38018 ft | 453 kts | 319° |
| 2026-05-07 09:31 | 47.31747 | 10.57057 | 38020 ft | 451 kts | 319° |
| 2026-05-07 09:32 | 47.36793 | 10.51523 | 38016 ft | 452 kts | 319° |
| 2026-05-07 09:32 | 47.41843 | 10.45957 | 38029 ft | 453 kts | 319° |
| 2026-05-07 09:33 | 47.46820 | 10.40264 | 38050 ft | 452 kts | 318° |
| 2026-05-07 09:33 | 47.51758 | 10.34503 | 38050 ft | 452 kts | 318° |
| 2026-05-07 09:34 | 47.56705 | 10.28751 | 38056 ft | 453 kts | 319° |
| 2026-05-07 09:34 | 47.61674 | 10.23024 | 38059 ft | 453 kts | 319° |
| 2026-05-07 09:35 | 47.66639 | 10.17271 | 38057 ft | 452 kts | 319° |
| 2026-05-07 09:35 | 47.71591 | 10.11505 | 38067 ft | 452 kts | 319° |
| 2026-05-07 09:36 | 47.76563 | 10.05704 | 38061 ft | 452 kts | 319° |
| 2026-05-07 09:36 | 47.81479 | 9.99966 | 38058 ft | 452 kts | 319° |
| 2026-05-07 09:37 | 47.86419 | 9.94174 | 38053 ft | 452 kts | 319° |
| 2026-05-07 09:37 | 47.91362 | 9.88373 | 38041 ft | 452 kts | 319° |
| 2026-05-07 09:38 | 47.96293 | 9.82569 | 38040 ft | 452 kts | 319° |
| 2026-05-07 09:38 | 48.01225 | 9.76754 | 38049 ft | 452 kts | 319° |
| 2026-05-07 09:39 | 48.06162 | 9.70917 | 38051 ft | 452 kts | 319° |
| 2026-05-07 09:39 | 48.10909 | 9.64802 | 38041 ft | 449 kts | 313° |
| 2026-05-07 09:40 | 48.15403 | 9.58283 | 38045 ft | 450 kts | 313° |
| 2026-05-07 09:40 | 48.19905 | 9.51755 | 38046 ft | 450 kts | 313° |
| 2026-05-07 09:41 | 48.24405 | 9.45224 | 38050 ft | 450 kts | 313° |
| 2026-05-07 09:41 | 48.28895 | 9.38675 | 38042 ft | 450 kts | 313° |
| 2026-05-07 09:42 | 48.33381 | 9.32119 | 38041 ft | 450 kts | 313° |
| 2026-05-07 09:42 | 48.37877 | 9.25547 | 38037 ft | 450 kts | 313° |
| 2026-05-07 09:43 | 48.42365 | 9.18957 | 38040 ft | 451 kts | 313° |
| 2026-05-07 09:43 | 48.46842 | 9.12349 | 38034 ft | 451 kts | 313° |
| 2026-05-07 09:44 | 48.51306 | 9.05751 | 38042 ft | 449 kts | 313° |
| 2026-05-07 09:44 | 48.55764 | 8.99156 | 38042 ft | 449 kts | 313° |
| 2026-05-07 09:45 | 48.60217 | 8.92558 | 38037 ft | 449 kts | 313° |
| 2026-05-07 09:45 | 48.64670 | 8.85928 | 38036 ft | 449 kts | 313° |
| 2026-05-07 09:46 | 48.69095 | 8.79324 | 38038 ft | 449 kts | 313° |
| 2026-05-07 09:46 | 48.73541 | 8.72689 | 38048 ft | 449 kts | 313° |
| 2026-05-07 09:47 | 48.77980 | 8.66035 | 38038 ft | 449 kts | 313° |
| 2026-05-07 09:47 | 48.82412 | 8.59356 | 38037 ft | 449 kts | 313° |
| 2026-05-07 09:48 | 48.86844 | 8.52655 | 38034 ft | 449 kts | 313° |
| 2026-05-07 09:48 | 48.91273 | 8.45957 | 38033 ft | 449 kts | 313° |
| 2026-05-07 09:49 | 48.95727 | 8.39209 | 38044 ft | 449 kts | 313° |
| 2026-05-07 09:49 | 49.00149 | 8.32501 | 38043 ft | 449 kts | 313° |
| 2026-05-07 09:50 | 49.04574 | 8.25767 | 38050 ft | 449 kts | 313° |
| 2026-05-07 09:50 | 49.08959 | 8.19055 | 38040 ft | 449 kts | 313° |
| 2026-05-07 09:51 | 49.13365 | 8.12293 | 38040 ft | 449 kts | 313° |
| 2026-05-07 09:51 | 49.17776 | 8.05522 | 38034 ft | 449 kts | 313° |
| 2026-05-07 09:52 | 49.22178 | 7.98744 | 38043 ft | 449 kts | 313° |
| 2026-05-07 09:52 | 49.26575 | 7.91951 | 38050 ft | 449 kts | 313° |
| 2026-05-07 09:53 | 49.30969 | 7.85138 | 38038 ft | 449 kts | 313° |
| 2026-05-07 09:53 | 49.35356 | 7.78335 | 38036 ft | 449 kts | 313° |
| 2026-05-07 09:54 | 49.39745 | 7.71507 | 38038 ft | 450 kts | 313° |
| 2026-05-07 09:54 | 49.44124 | 7.64648 | 38039 ft | 449 kts | 313° |
| 2026-05-07 09:55 | 49.48508 | 7.57794 | 38044 ft | 449 kts | 313° |
| 2026-05-07 09:55 | 49.52883 | 7.50941 | 38046 ft | 449 kts | 313° |
| 2026-05-07 09:56 | 49.57249 | 7.44069 | 38047 ft | 448 kts | 313° |
| 2026-05-07 09:56 | 49.61604 | 7.37188 | 38046 ft | 448 kts | 313° |
| 2026-05-07 09:57 | 49.65948 | 7.30297 | 38035 ft | 448 kts | 313° |
| 2026-05-07 09:57 | 49.70297 | 7.23403 | 38035 ft | 448 kts | 313° |
| 2026-05-07 09:58 | 49.74639 | 7.16506 | 38039 ft | 447 kts | 313° |
| 2026-05-07 09:58 | 49.78976 | 7.09587 | 38038 ft | 447 kts | 313° |
| 2026-05-07 09:59 | 49.83273 | 7.02705 | 38032 ft | 447 kts | 313° |
| 2026-05-07 09:59 | 49.87587 | 6.95778 | 38024 ft | 447 kts | 312° |
| 2026-05-07 10:00 | 49.91902 | 6.88834 | 38019 ft | 447 kts | 312° |
| 2026-05-07 10:00 | 49.96216 | 6.81874 | 38040 ft | 447 kts | 312° |
| 2026-05-07 10:01 | 50.00526 | 6.74912 | 38047 ft | 447 kts | 312° |
| 2026-05-07 10:01 | 50.04830 | 6.67935 | 38042 ft | 447 kts | 312° |
| 2026-05-07 10:02 | 50.09129 | 6.60941 | 38036 ft | 447 kts | 312° |
| 2026-05-07 10:02 | 50.13421 | 6.53936 | 38027 ft | 447 kts | 312° |
| 2026-05-07 10:03 | 50.17698 | 6.46914 | 38026 ft | 446 kts | 310° |
| 2026-05-07 10:03 | 50.21210 | 6.39006 | 38041 ft | 443 kts | 301° |
| 2026-05-07 10:04 | 50.24452 | 6.30879 | 38037 ft | 443 kts | 301° |
| 2026-05-07 10:04 | 50.27720 | 6.22712 | 38054 ft | 443 kts | 301° |
| 2026-05-07 10:05 | 50.30982 | 6.14520 | 38052 ft | 444 kts | 301° |
| 2026-05-07 10:05 | 50.34231 | 6.06328 | 38053 ft | 443 kts | 301° |
| 2026-05-07 10:06 | 50.37475 | 5.98102 | 38061 ft | 444 kts | 301° |
| 2026-05-07 10:06 | 50.40715 | 5.89859 | 38068 ft | 444 kts | 301° |
| 2026-05-07 10:07 | 50.43949 | 5.81619 | 38067 ft | 443 kts | 301° |
| 2026-05-07 10:07 | 50.47185 | 5.73376 | 38070 ft | 444 kts | 300° |
| 2026-05-07 10:08 | 50.49882 | 5.66449 | 38065 ft | 443 kts | 300° |
| 2026-05-07 10:08 | 50.53044 | 5.58218 | 38066 ft | 443 kts | 299° |
| 2026-05-07 10:09 | 50.56100 | 5.49810 | 38077 ft | 443 kts | 298° |
| 2026-05-07 10:09 | 50.59112 | 5.41357 | 38072 ft | 442 kts | 298° |
| 2026-05-07 10:10 | 50.62140 | 5.32931 | 38074 ft | 442 kts | 298° |
| 2026-05-07 10:10 | 50.65175 | 5.24507 | 38067 ft | 442 kts | 298° |
| 2026-05-07 10:11 | 50.68207 | 5.16070 | 38071 ft | 442 kts | 298° |
| 2026-05-07 10:11 | 50.71233 | 5.07612 | 38083 ft | 443 kts | 298° |
| 2026-05-07 10:12 | 50.74252 | 4.99135 | 38085 ft | 443 kts | 298° |
| 2026-05-07 10:12 | 50.77263 | 4.90648 | 38081 ft | 443 kts | 298° |
| 2026-05-07 10:13 | 50.80272 | 4.82157 | 38081 ft | 443 kts | 298° |
| 2026-05-07 10:13 | 50.83271 | 4.73649 | 38076 ft | 443 kts | 298° |
| 2026-05-07 10:14 | 50.86272 | 4.65129 | 38096 ft | 443 kts | 298° |
| 2026-05-07 10:14 | 50.89262 | 4.56585 | 38104 ft | 444 kts | 298° |
| 2026-05-07 10:15 | 50.92319 | 4.48085 | 38092 ft | 444 kts | 300° |
| 2026-05-07 10:15 | 50.95562 | 4.39750 | 38091 ft | 444 kts | 301° |
| 2026-05-07 10:16 | 50.98823 | 4.31444 | 38088 ft | 444 kts | 301° |
| 2026-05-07 10:16 | 51.02042 | 4.23075 | 38103 ft | 444 kts | 300° |
| 2026-05-07 10:17 | 51.05204 | 4.14726 | 38088 ft | 444 kts | 300° |
| 2026-05-07 10:17 | 51.08379 | 4.06323 | 38083 ft | 443 kts | 300° |
| 2026-05-07 10:18 | 51.11551 | 3.97919 | 38074 ft | 443 kts | 300° |
| 2026-05-07 10:18 | 51.14718 | 3.89503 | 38068 ft | 443 kts | 300° |
| 2026-05-07 10:19 | 51.17885 | 3.81064 | 38065 ft | 444 kts | 300° |
| 2026-05-07 10:19 | 51.21060 | 3.72607 | 38072 ft | 444 kts | 300° |
| 2026-05-07 10:20 | 51.24211 | 3.64151 | 38077 ft | 443 kts | 300° |
| 2026-05-07 10:20 | 51.27356 | 3.55694 | 38081 ft | 443 kts | 299° |
| 2026-05-07 10:21 | 51.30503 | 3.47191 | 38085 ft | 445 kts | 299° |
| 2026-05-07 10:21 | 51.33637 | 3.38686 | 38091 ft | 444 kts | 299° |
| 2026-05-07 10:22 | 51.36182 | 3.29721 | 38097 ft | 443 kts | 290° |
| 2026-05-07 10:22 | 51.38360 | 3.20513 | 38090 ft | 443 kts | 290° |
| 2026-05-07 10:23 | 51.40527 | 3.11346 | 38109 ft | 443 kts | 290° |
| 2026-05-07 10:23 | 51.42700 | 3.02114 | 38105 ft | 442 kts | 290° |
| 2026-05-07 10:24 | 51.44873 | 2.92872 | 38110 ft | 443 kts | 290° |
| 2026-05-07 10:24 | 51.47041 | 2.83623 | 38103 ft | 443 kts | 289° |
| 2026-05-07 10:25 | 51.49194 | 2.74365 | 38111 ft | 443 kts | 289° |
| 2026-05-07 10:25 | 51.51327 | 2.65107 | 38102 ft | 442 kts | 289° |
| 2026-05-07 10:26 | 51.53459 | 2.55837 | 37867 ft | 442 kts | 289° |
| 2026-05-07 10:26 | 51.54522 | 2.51209 | 37586 ft | 441 kts | 289° |
| 2026-05-07 10:26 | 51.55583 | 2.46582 | 37286 ft | 440 kts | 289° |
| 2026-05-07 10:26 | 51.56638 | 2.41969 | 36648 ft | 441 kts | 289° |
| 2026-05-07 10:27 | 51.57686 | 2.37392 | 35928 ft | 443 kts | 289° |
| 2026-05-07 10:27 | 51.58769 | 2.32648 | 35121 ft | 448 kts | 289° |
| 2026-05-07 10:27 | 51.59828 | 2.27994 | 34319 ft | 451 kts | 289° |
| 2026-05-07 10:27 | 51.60900 | 2.23276 | 33326 ft | 448 kts | 289° |
| 2026-05-07 10:28 | 51.61957 | 2.18615 | 32430 ft | 440 kts | 289° |
| 2026-05-07 10:28 | 51.62999 | 2.14007 | 31594 ft | 432 kts | 289° |
| 2026-05-07 10:28 | 51.64008 | 2.09526 | 31180 ft | 423 kts | 289° |
| 2026-05-07 10:28 | 51.65007 | 2.05086 | 30615 ft | 420 kts | 289° |
| 2026-05-07 10:29 | 51.65998 | 2.00676 | 30043 ft | 418 kts | 289° |
| 2026-05-07 10:29 | 51.66978 | 1.96294 | 29449 ft | 414 kts | 289° |
| 2026-05-07 10:29 | 51.67948 | 1.91949 | 28904 ft | 410 kts | 289° |
| 2026-05-07 10:30 | 51.69855 | 1.83370 | 27821 ft | 403 kts | 289° |
| 2026-05-07 10:30 | 51.70793 | 1.79139 | 27300 ft | 399 kts | 289° |
| 2026-05-07 10:30 | 51.71723 | 1.74938 | 26765 ft | 396 kts | 289° |
| 2026-05-07 10:30 | 51.72646 | 1.70769 | 26243 ft | 393 kts | 289° |
| 2026-05-07 10:31 | 51.73560 | 1.66631 | 25738 ft | 390 kts | 288° |
| 2026-05-07 10:31 | 51.74254 | 1.62422 | 25247 ft | 387 kts | 279° |
| 2026-05-07 10:31 | 51.74489 | 1.58110 | 24700 ft | 386 kts | 269° |
| 2026-05-07 10:31 | 51.74280 | 1.53803 | 24311 ft | 382 kts | 263° |
| 2026-05-07 10:32 | 51.73991 | 1.49580 | 23992 ft | 376 kts | 263° |
| 2026-05-07 10:32 | 51.73723 | 1.45409 | 23582 ft | 372 kts | 263° |
| 2026-05-07 10:32 | 51.73463 | 1.41281 | 23081 ft | 367 kts | 264° |
| 2026-05-07 10:32 | 51.73207 | 1.37209 | 22198 ft | 362 kts | 264° |
| 2026-05-07 10:33 | 51.72951 | 1.33195 | 21325 ft | 358 kts | 263° |
| 2026-05-07 10:33 | 51.72691 | 1.29200 | 20745 ft | 359 kts | 263° |
| 2026-05-07 10:33 | 51.72426 | 1.25206 | 20205 ft | 358 kts | 263° |
| 2026-05-07 10:33 | 51.72161 | 1.21226 | 19669 ft | 357 kts | 263° |
| 2026-05-07 10:34 | 51.71896 | 1.17257 | 19162 ft | 355 kts | 263° |
| 2026-05-07 10:34 | 51.71631 | 1.13336 | 18662 ft | 350 kts | 263° |
| 2026-05-07 10:34 | 51.71368 | 1.09451 | 18039 ft | 345 kts | 263° |
| 2026-05-07 10:34 | 51.71108 | 1.05622 | 17526 ft | 342 kts | 263° |
| 2026-05-07 10:35 | 51.70845 | 1.01812 | 17008 ft | 340 kts | 263° |
| 2026-05-07 10:35 | 51.70584 | 0.98036 | 16491 ft | 339 kts | 263° |
| 2026-05-07 10:35 | 51.70324 | 0.94281 | 16135 ft | 333 kts | 263° |
| 2026-05-07 10:35 | 51.70068 | 0.90564 | 16116 ft | 334 kts | 263° |
| 2026-05-07 10:36 | 51.69810 | 0.86838 | 16117 ft | 335 kts | 263° |
| 2026-05-07 10:36 | 51.69550 | 0.83111 | 16113 ft | 334 kts | 263° |
| 2026-05-07 10:36 | 51.69292 | 0.79396 | 16112 ft | 334 kts | 263° |
| 2026-05-07 10:36 | 51.69030 | 0.75676 | 16111 ft | 334 kts | 263° |
| 2026-05-07 10:37 | 51.68764 | 0.71953 | 16107 ft | 335 kts | 263° |
| 2026-05-07 10:37 | 51.68497 | 0.68226 | 16112 ft | 335 kts | 263° |
| 2026-05-07 10:37 | 51.68232 | 0.64499 | 16109 ft | 335 kts | 263° |
| 2026-05-07 10:37 | 51.67968 | 0.60776 | 16115 ft | 334 kts | 263° |
| 2026-05-07 10:38 | 51.67703 | 0.57062 | 16108 ft | 334 kts | 263° |
| 2026-05-07 10:38 | 51.67438 | 0.53362 | 15787 ft | 331 kts | 263° |
| 2026-05-07 10:38 | 51.67170 | 0.49686 | 15300 ft | 330 kts | 263° |
| 2026-05-07 10:38 | 51.66902 | 0.46027 | 14861 ft | 328 kts | 263° |
| 2026-05-07 10:39 | 51.66634 | 0.42386 | 14443 ft | 325 kts | 263° |
| 2026-05-07 10:39 | 51.66369 | 0.38781 | 14064 ft | 322 kts | 263° |
| 2026-05-07 10:39 | 51.66108 | 0.35261 | 13934 ft | 311 kts | 263° |
| 2026-05-07 10:39 | 51.65858 | 0.31895 | 13820 ft | 301 kts | 263° |
| 2026-05-07 10:40 | 51.65609 | 0.28563 | 13698 ft | 291 kts | 263° |
| 2026-05-07 10:40 | 51.65371 | 0.25377 | 13564 ft | 283 kts | 263° |
| 2026-05-07 10:40 | 51.65138 | 0.22276 | 13431 ft | 275 kts | 263° |
| 2026-05-07 10:40 | 51.64909 | 0.19258 | 13300 ft | 267 kts | 263° |
| 2026-05-07 10:41 | 51.64721 | 0.16315 | 13101 ft | 262 kts | 265° |
| 2026-05-07 10:41 | 51.64606 | 0.13430 | 12827 ft | 261 kts | 266° |
| 2026-05-07 10:41 | 51.64496 | 0.10515 | 12534 ft | 260 kts | 266° |
| 2026-05-07 10:41 | 51.64390 | 0.07612 | 12241 ft | 259 kts | 266° |
| 2026-05-07 10:42 | 51.64282 | 0.04722 | 11946 ft | 258 kts | 266° |
| 2026-05-07 10:42 | 51.64173 | 0.01827 | 11660 ft | 258 kts | 266° |
| 2026-05-07 10:42 | 51.64063 | -0.01048 | 11370 ft | 257 kts | 266° |
| 2026-05-07 10:42 | 51.63960 | -0.03909 | 11081 ft | 257 kts | 266° |
| 2026-05-07 10:43 | 51.63863 | -0.06771 | 10802 ft | 256 kts | 266° |
| 2026-05-07 10:43 | 51.63768 | -0.09630 | 10521 ft | 256 kts | 266° |
| 2026-05-07 10:43 | 51.63672 | -0.12481 | 10252 ft | 255 kts | 266° |
| 2026-05-07 10:43 | 51.63569 | -0.15329 | 9996 ft | 255 kts | 266° |
| 2026-05-07 10:44 | 51.63465 | -0.18159 | 9725 ft | 253 kts | 266° |
| 2026-05-07 10:44 | 51.63360 | -0.20983 | 9447 ft | 252 kts | 266° |
| 2026-05-07 10:44 | 51.63254 | -0.23784 | 9187 ft | 250 kts | 266° |
| 2026-05-07 10:44 | 51.63148 | -0.26564 | 8924 ft | 248 kts | 266° |
| 2026-05-07 10:45 | 51.63045 | -0.29320 | 8678 ft | 246 kts | 266° |
| 2026-05-07 10:45 | 51.62941 | -0.32056 | 8413 ft | 244 kts | 266° |
| 2026-05-07 10:45 | 51.62839 | -0.34769 | 8180 ft | 241 kts | 266° |
| 2026-05-07 10:45 | 51.62737 | -0.37459 | 8082 ft | 240 kts | 266° |
| 2026-05-07 10:46 | 51.62637 | -0.40135 | 8093 ft | 241 kts | 266° |
| 2026-05-07 10:46 | 51.62533 | -0.42831 | 8086 ft | 241 kts | 266° |
| 2026-05-07 10:46 | 51.62431 | -0.45518 | 8084 ft | 241 kts | 266° |
| 2026-05-07 10:46 | 51.62327 | -0.48210 | 8092 ft | 241 kts | 266° |
| 2026-05-07 10:47 | 51.62223 | -0.50868 | 8092 ft | 231 kts | 266° |
| 2026-05-07 10:47 | 51.62124 | -0.53382 | 8086 ft | 221 kts | 266° |
| 2026-05-07 10:47 | 51.62030 | -0.55831 | 7820 ft | 220 kts | 266° |
| 2026-05-07 10:47 | 51.61934 | -0.58334 | 7340 ft | 228 kts | 266° |
| 2026-05-07 10:48 | 51.61835 | -0.60852 | 7190 ft | 221 kts | 266° |
| 2026-05-07 10:48 | 51.61736 | -0.63282 | 7073 ft | 213 kts | 266° |
| 2026-05-07 10:48 | 51.61640 | -0.65609 | 6940 ft | 205 kts | 266° |
| 2026-05-07 10:48 | 51.61548 | -0.67841 | 6830 ft | 195 kts | 266° |
| 2026-05-07 10:49 | 51.61388 | -0.69966 | 6652 ft | 190 kts | 249° |
| 2026-05-07 10:49 | 51.60729 | -0.71783 | 6411 ft | 189 kts | 234° |
| 2026-05-07 10:49 | 51.59920 | -0.73437 | 6122 ft | 187 kts | 233° |
| 2026-05-07 10:49 | 51.59089 | -0.75043 | 5840 ft | 187 kts | 231° |
| 2026-05-07 10:50 | 51.58252 | -0.76648 | 5567 ft | 188 kts | 231° |
| 2026-05-07 10:50 | 51.57419 | -0.78265 | 5317 ft | 188 kts | 231° |
| 2026-05-07 10:50 | 51.56867 | -0.79336 | 5164 ft | 187 kts | 230° |
| 2026-05-07 10:50 | 51.55792 | -0.80472 | 4942 ft | 189 kts | 194° |
| 2026-05-07 10:51 | 51.54490 | -0.80693 | 4639 ft | 188 kts | 183° |
| 2026-05-07 10:51 | 51.53188 | -0.80706 | 4249 ft | 187 kts | 181° |
| 2026-05-07 10:51 | 51.51875 | -0.80685 | 3964 ft | 188 kts | 181° |
| 2026-05-07 10:51 | 51.50573 | -0.80660 | 3749 ft | 186 kts | 181° |
| 2026-05-07 10:52 | 51.49301 | -0.80353 | 3535 ft | 186 kts | 158° |
| 2026-05-07 10:52 | 51.48244 | -0.79153 | 3307 ft | 185 kts | 131° |
| 2026-05-07 10:52 | 51.47664 | -0.77321 | 3062 ft | 187 kts | 103° |
| 2026-05-07 10:52 | 51.47603 | -0.75262 | 3007 ft | 187 kts | 90° |
| 2026-05-07 10:53 | 51.47620 | -0.73175 | 3018 ft | 181 kts | 90° |
| 2026-05-07 10:53 | 51.47633 | -0.71203 | 2868 ft | 174 kts | 91° |
| 2026-05-07 10:53 | 51.47647 | -0.69299 | 2670 ft | 168 kts | 90° |
| 2026-05-07 10:53 | 51.47656 | -0.67436 | 2461 ft | 166 kts | 91° |
| 2026-05-07 10:54 | 51.47666 | -0.65587 | 2230 ft | 166 kts | 91° |
| 2026-05-07 10:54 | 51.47676 | -0.63747 | 2010 ft | 165 kts | 90° |
| 2026-05-07 10:54 | 51.47685 | -0.61911 | 1781 ft | 164 kts | 90° |
| 2026-05-07 10:54 | 51.47694 | -0.60083 | 1558 ft | 164 kts | 91° |
| 2026-05-07 10:55 | 51.47705 | -0.58255 | 1328 ft | 162 kts | 90° |
| 2026-05-07 10:55 | 51.47713 | -0.56488 | 1107 ft | 154 kts | 90° |
| 2026-05-07 10:55 | 51.47721 | -0.54815 | 903 ft | 147 kts | 90° |
| 2026-05-07 10:55 | 51.47728 | -0.53201 | 721 ft | 141 kts | 90° |
| 2026-05-07 10:56 | 51.47735 | -0.51672 | 526 ft | 138 kts | 90° |
| 2026-05-07 10:56 | 51.47741 | -0.50135 | 338 ft | 138 kts | 91° |
| 2026-05-07 10:56 | 51.47749 | -0.48607 | 161 ft | 137 kts | 90° |
| 2026-05-07 10:56 | 51.47756 | -0.47156 | 90 ft | 111 kts | 90° |
| 2026-05-07 10:57 | 51.47759 | -0.46184 | 88 ft | 62 kts | 89° |
| 2026-05-07 10:57 | 51.47760 | -0.45680 | 84 ft | 30 kts | 90° |
| 2026-05-07 10:57 | 51.47735 | -0.45493 | 87 ft | 16 kts | 137° |
| 2026-05-07 10:57 | 51.47646 | -0.45467 | 86 ft | 10 kts | 180° |
| 2026-05-07 10:58 | 51.47597 | -0.45539 | 86 ft | 12 kts | 264° |
| 2026-05-07 10:58 | 51.47596 | -0.45689 | 89 ft | 15 kts | 269° |
| 2026-05-07 10:58 | 51.47595 | -0.45871 | 91 ft | 18 kts | 270° |
| 2026-05-07 10:58 | 51.47595 | -0.46081 | 86 ft | 20 kts | 270° |
| 2026-05-07 10:59 | 51.47593 | -0.46319 | 86 ft | 23 kts | 269° |
| 2026-05-07 10:59 | 51.47592 | -0.46589 | 86 ft | 26 kts | 270° |
| 2026-05-07 10:59 | 51.47589 | -0.46828 | 88 ft | 17 kts | 263° |
| 2026-05-07 10:59 | 51.47582 | -0.47038 | 89 ft | 20 kts | 269° |
| 2026-05-07 11:00 | 51.47582 | -0.47284 | 91 ft | 24 kts | 269° |
| 2026-05-07 11:00 | 51.47580 | -0.47564 | 88 ft | 26 kts | 270° |
| 2026-05-07 11:00 | 51.47580 | -0.47869 | 90 ft | 28 kts | 269° |
| 2026-05-07 11:00 | 51.47579 | -0.48190 | 86 ft | 28 kts | 269° |
| 2026-05-07 11:01 | 51.47578 | -0.48392 | 88 ft | 10 kts | 270° |
| 2026-05-07 11:01 | 51.47545 | -0.48474 | 87 ft | 10 kts | 189° |
| 2026-05-07 11:01 | 51.47469 | -0.48475 | 88 ft | 12 kts | 179° |
| 2026-05-07 11:01 | 51.47381 | -0.48474 | 86 ft | 13 kts | 180° |
| 2026-05-07 11:02 | 51.47282 | -0.48473 | 88 ft | 15 kts | 180° |
| 2026-05-07 11:02 | 51.47198 | -0.48473 | 86 ft | 3 kts | 180° |
| 2026-05-07 11:02 | 51.47190 | -0.48491 | 90 ft | 3 kts | 254° |
| 2026-05-07 11:02 | 51.47188 | -0.48527 | 89 ft | 4 kts | 267° |
| 2026-05-07 11:03 | 51.47188 | -0.48577 | 86 ft | 4 kts | 269° |
| 2026-05-07 11:03 | 51.47188 | -0.48588 | 86 ft | 1 kts | 270° |
| 2026-05-07 11:03 | 51.47188 | -0.48589 | 86 ft | 0 kts | 270° |